Franklin, VA

10:34 AM EST on December 29, 2014 (GMT -0500)
Aaron's Weather Service | Change Station
CLOSE
Current Station
Personal Weather Station
Location: Franklin, VA
Elevation: 98 ft
Nearby Weather Stations

Elev 98 ft 36.70 °N, 76.96 °W | Updated 8 seconds ago

Rain
Rain
42.6 °F
Feels Like 38 °F
N
8.4
Wind Variable Wind from NNE
Gusts 11.5 mph

Today
High -- | Low -- °F
--% Chance of Precip.
Yesterday
High -- | Low -- °F
Precip. -- in
7:19 AM 5:00 PM
First Quarter, 60% visible
Pressure 30.17 in
Visibility 10.0 miles
Clouds Overcast 900 ft
Windchill 38 °F
Dew Point 41 °F
Humidity 95%
Rainfall 0.36 in
Snow Depth Not available.
UV 1 out of 12
Pollen .10 out of 12
Air Quality Not available.
Flu Activity Not available.
METAR KFKN 291515Z AUTO 04007KT 10SM OVC009 06/06 A3017 RMK AO1

More Conditions Fewer Conditions

Pressure 30.17 in
Visibility 10.0 miles
Clouds Overcast 900 ft
Windchill 38 °F
Dew Point 41 °F
Humidity 95%
Rainfall 0.36 in
Snow Depth Not available.
UV 1 out of 12
Pollen .10 out of 12
Air Quality Not available.
Flu Activity Not available.
METAR KFKN 291515Z AUTO 04007KT 10SM OVC009 06/06 A3017 RMK AO1

More Conditions Fewer Conditions

10-Day Weather Forecast

Almanac

Astronomy

Dec. 29, 2014 Rise Set
Actual Time
Civil Twilight
Nautical Twilight
Astronomical Twilight
Moon
Length of Visible Light
Length of Day
Tomorrow will be .
, % of the Moon is Illuminated

Today's Extremes

State Highs State Lows

Community

WunderPhotos

Upload Photos

1,781,604 photos uploaded!

WunderBlogs® & News

Nearby

Air Quality

  Air Quality AQ Index Pollutant
Not available.

Snow Depth

Station Depth Elevation

Earthquake Activity

City Distance Mag. Time & Date
Minimum magnitude displayed is 2.5.

Coastal Water Temperatures

Place Temperature

Nearby Weather Stations